Time;durP1;ratioP1;P1;durP2;ratioP2;P2;SDS_P1;SDS_P2;PMS_P1;PMS_P2;Temp;Humidity;BMP_temperature;BMP_pressure;BME280_temperature;BME280_humidity;BME280_pressure;Samples;Min_cycle;Max_cycle;Signal;HPM_P1;HPM_P2
2023/12/01 00:01:15;;;;;;;50.20;22.87;;;1.60;99.90;;;;;;6213813;23;20005;-69
2023/12/01 00:03:40;;;;;;;43.57;21.23;;;1.60;99.90;;;;;;6214161;23;20032;-69
2023/12/01 00:06:07;;;;;;;50.23;22.73;;;1.60;99.90;;;;;;6213886;23;20104;-69
2023/12/01 00:08:32;;;;;;;51.13;23.23;;;1.60;99.90;;;;;;6214100;23;20009;-69
2023/12/01 00:10:58;;;;;;;41.63;21.60;;;1.60;99.90;;;;;;6214247;23;20039;-69
2023/12/01 00:13:23;;;;;;;46.07;21.03;;;1.60;99.90;;;;;;6213425;23;20001;-69
2023/12/01 00:15:49;;;;;;;49.97;21.07;;;1.60;99.90;;;;;;6214174;23;20001;-69
2023/12/01 00:18:14;;;;;;;45.10;21.00;;;1.60;99.90;;;;;;6213918;23;20004;-70
2023/12/01 00:20:40;;;;;;;42.17;21.17;;;1.60;99.90;;;;;;6214161;23;20070;-70
2023/12/01 00:23:06;;;;;;;44.60;20.77;;;1.60;99.90;;;;;;6213494;23;20000;-70
2023/12/01 00:25:31;;;;;;;52.20;23.17;;;1.50;99.90;;;;;;6214127;23;20423;-70
2023/12/01 00:27:58;;;;;;;64.10;24.53;;;1.50;99.90;;;;;;6212587;23;20346;-69
2023/12/01 00:30:28;;;;;;;57.97;22.73;;;1.50;99.90;;;;;;6211630;23;20032;-69
2023/12/01 00:32:54;;;;;;;58.00;22.43;;;1.50;99.90;;;;;;6212446;23;20080;-69
2023/12/01 00:35:20;;;;;;;53.60;22.90;;;1.40;99.90;;;;;;6212287;23;20028;-69
2023/12/01 00:37:45;;;;;;;58.90;23.27;;;1.50;99.90;;;;;;6212105;23;20427;-69
2023/12/01 00:40:12;;;;;;;57.93;23.63;;;1.50;99.90;;;;;;6211982;23;20001;-69
2023/12/01 00:42:37;;;;;;;57.33;20.23;;;1.40;99.90;;;;;;6212126;23;20011;-69
2023/12/01 00:45:03;;;;;;;64.47;23.10;;;1.40;99.90;;;;;;6211611;23;20397;-69
2023/12/01 00:47:29;;;;;;;61.37;23.80;;;1.40;99.90;;;;;;6211872;23;20080;-69
2023/12/01 00:49:54;;;;;;;58.63;21.30;;;1.40;99.90;;;;;;6212324;23;20086;-69
2023/12/01 00:52:20;;;;;;;58.57;22.23;;;1.50;99.90;;;;;;6211966;23;20005;-69
2023/12/01 00:54:45;;;;;;;53.83;22.57;;;1.50;99.90;;;;;;6212254;23;20009;-75
2023/12/01 00:57:11;;;;;;;59.77;24.37;;;1.50;99.90;;;;;;6211879;23;20427;-75
2023/12/01 00:59:37;;;;;;;64.50;25.77;;;1.50;99.90;;;;;;6210556;23;20024;-76
2023/12/01 01:02:03;;;;;;;65.37;23.13;;;1.40;99.90;;;;;;6209901;23;20015;-75
2023/12/01 01:04:28;;;;;;;74.60;26.00;;;1.40;99.90;;;;;;6210541;23;20063;-75
2023/12/01 01:06:54;;;;;;;74.33;27.20;;;1.40;99.90;;;;;;6210514;23;20008;-75
2023/12/01 01:09:19;;;;;;;69.27;27.30;;;1.40;99.90;;;;;;6210825;23;20036;-75
2023/12/01 01:11:45;;;;;;;67.00;25.23;;;1.40;99.90;;;;;;6211014;23;20001;-75
2023/12/01 01:14:11;;;;;;;71.37;26.27;;;1.40;99.90;;;;;;6212726;23;20024;-75
2023/12/01 01:16:36;;;;;;;72.47;28.23;;;1.40;99.90;;;;;;6217300;23;20032;-75
2023/12/01 01:19:02;;;;;;;86.20;29.83;;;1.40;99.90;;;;;;6218902;23;20075;-75
2023/12/01 01:21:27;;;;;;;96.97;31.27;;;1.50;99.90;;;;;;6218980;23;20007;-75
2023/12/01 01:23:53;;;;;;;74.23;28.23;;;1.40;99.90;;;;;;6221937;23;20009;-75
2023/12/01 01:26:21;;;;;;;76.73;30.40;;;1.40;99.90;;;;;;6161754;23;1354627;-75
2023/12/01 01:28:47;;;;;;;82.03;29.37;;;1.40;99.90;;;;;;6245244;23;20438;-75
2023/12/01 01:31:13;;;;;;;82.70;29.53;;;1.40;99.90;;;;;;6219674;23;20027;-75
2023/12/01 01:33:38;;;;;;;86.37;29.17;;;1.40;99.90;;;;;;6221922;23;20039;-75
2023/12/01 01:36:04;;;;;;;80.40;27.33;;;1.40;99.90;;;;;;6219164;23;20508;-75
2023/12/01 01:38:30;;;;;;;83.53;29.80;;;1.40;99.90;;;;;;6221052;23;20104;-75
2023/12/01 01:40:55;;;;;;;80.57;25.80;;;1.40;99.90;;;;;;6221403;23;20059;-76
2023/12/01 01:43:24;;;;;;;84.97;28.17;;;1.40;99.90;;;;;;6221573;23;20005;-75
2023/12/01 01:46:09;;;;;;;85.37;30.93;;;1.40;99.90;;;;;;6222283;23;19997;-75
2023/12/01 01:48:34;;;;;;;;;;;1.40;99.90;;;;;;6221399;23;20005;-75
2023/12/01 01:51:01;;;;;;;95.97;30.33;;;1.40;99.90;;;;;;6194525;23;19986;-75
2023/12/01 01:53:27;;;;;;;97.50;30.73;;;1.30;99.90;;;;;;6219129;23;20011;-75
2023/12/01 01:55:57;;;;;;;92.83;31.83;;;1.30;99.90;;;;;;6212538;23;20028;-72
2023/12/01 01:58:23;;;;;;;99.97;33.37;;;1.30;99.90;;;;;;6212960;23;20418;-70
2023/12/01 02:00:49;;;;;;;97.87;32.13;;;1.40;99.90;;;;;;6213207;23;20005;-70
2023/12/01 02:03:20;;;;;;;115.47;36.03;;;1.30;99.90;;;;;;6212942;23;20005;-70
2023/12/01 02:05:49;;;;;;;106.60;34.50;;;1.40;99.90;;;;;;6211201;23;20004;-70
2023/12/01 02:08:25;;;;;;;107.80;34.00;;;1.40;99.90;;;;;;6212904;23;20004;-70
2023/12/01 02:10:55;;;;;;;107.70;31.83;;;1.50;99.90;;;;;;6213244;23;20055;-70
2023/12/01 02:13:22;;;;;;;95.07;34.40;;;1.50;99.90;;;;;;6212205;23;20015;-70
2023/12/01 02:15:48;;;;;;;85.93;31.67;;;1.50;99.90;;;;;;6213052;23;20004;-70
2023/12/01 02:18:30;;;;;;;98.93;35.17;;;1.50;99.90;;;;;;6212732;23;20391;-70
2023/12/01 02:20:58;;;;;;;94.90;33.17;;;1.50;99.90;;;;;;6213158;23;20023;-70
2023/12/01 02:23:24;;;;;;;100.27;36.87;;;1.50;99.90;;;;;;6214106;23;20123;-70
2023/12/01 02:25:50;;;;;;;101.60;37.47;;;1.40;99.90;;;;;;6212929;23;20005;-70
2023/12/01 02:28:16;;;;;;;97.17;33.87;;;1.40;99.90;;;;;;6212282;23;20012;-70
2023/12/01 02:30:52;;;;;;;96.63;33.53;;;1.40;99.90;;;;;;6211902;23;20005;-70
2023/12/01 02:33:18;;;;;;;88.77;32.43;;;1.50;99.90;;;;;;6212580;23;20040;-69
2023/12/01 02:35:47;;;;;;;97.20;36.30;;;1.50;99.90;;;;;;6212554;23;20004;-70
2023/12/01 02:38:13;;;;;;;91.67;33.80;;;1.50;99.90;;;;;;6212770;23;20326;-70
2023/12/01 02:40:42;;;;;;;109.47;38.13;;;1.50;99.90;;;;;;6211937;23;20068;-70
2023/12/01 02:43:10;;;;;;;101.33;38.27;;;1.50;99.90;;;;;;6212172;23;20426;-70
2023/12/01 02:45:36;;;;;;;99.87;35.57;;;1.60;99.90;;;;;;6212313;23;20011;-70
2023/12/01 02:48:01;;;;;;;95.83;35.57;;;1.60;99.90;;;;;;6212261;23;20005;-70
2023/12/01 02:50:27;;;;;;;97.00;35.27;;;1.60;99.90;;;;;;6212334;23;20079;-69
2023/12/01 02:52:53;;;;;;;102.30;40.43;;;1.70;99.90;;;;;;6210787;23;20501;-69
2023/12/01 02:55:18;;;;;;;94.47;35.57;;;1.70;99.90;;;;;;6211781;23;20015;-75
2023/12/01 02:57:44;;;;;;;87.93;33.40;;;1.70;99.90;;;;;;6212229;23;20075;-75
2023/12/01 03:00:13;;;;;;;97.83;37.47;;;1.70;99.90;;;;;;6213880;23;20024;-75
2023/12/01 03:02:40;;;;;;;100.87;38.00;;;1.70;99.90;;;;;;6218932;23;20087;-75
2023/12/01 03:05:07;;;;;;;110.30;38.73;;;1.70;99.90;;;;;;6216581;23;20442;-75
2023/12/01 03:07:33;;;;;;;84.50;38.83;;;1.70;99.90;;;;;;6216600;23;20007;-75
2023/12/01 03:09:58;;;;;;;84.93;36.67;;;1.80;99.90;;;;;;6218235;23;20024;-75
2023/12/01 03:12:27;;;;;;;87.70;35.27;;;1.80;99.90;;;;;;6218387;23;20015;-75
2023/12/01 03:14:53;;;;;;;89.70;35.87;;;1.70;99.90;;;;;;6217085;23;20066;-75
2023/12/01 03:17:18;;;;;;;83.07;35.10;;;1.80;99.90;;;;;;6216041;23;20435;-75
2023/12/01 03:19:46;;;;;;;84.60;32.90;;;1.80;99.90;;;;;;6212295;23;20072;-75
2023/12/01 03:22:12;;;;;;;77.87;34.13;;;1.90;99.90;;;;;;6212576;23;20012;-75
2023/12/01 03:24:38;;;;;;;78.23;33.63;;;1.90;99.90;;;;;;6211919;23;19996;-75
2023/12/01 03:27:04;;;;;;;82.83;34.83;;;1.90;99.90;;;;;;6211499;23;20091;-75
2023/12/01 03:29:32;;;;;;;77.03;31.03;;;1.90;99.90;;;;;;6211946;23;20368;-75
2023/12/01 03:31:58;;;;;;;75.40;29.93;;;1.90;99.90;;;;;;6211864;23;20008;-75
2023/12/01 03:34:24;;;;;;;85.77;34.33;;;2.00;99.90;;;;;;6211425;23;20698;-75
2023/12/01 03:36:51;;;;;;;81.10;34.03;;;2.00;99.90;;;;;;6212136;23;19997;-75
2023/12/01 03:39:16;;;;;;;74.70;32.87;;;2.00;99.90;;;;;;6209884;23;20370;-75
2023/12/01 03:41:46;;;;;;;75.80;32.50;;;2.00;99.90;;;;;;6211928;23;20008;-75
2023/12/01 03:44:11;;;;;;;88.53;33.87;;;2.00;99.90;;;;;;6212468;23;20005;-75
2023/12/01 03:46:37;;;;;;;75.67;31.27;;;2.00;99.90;;;;;;6210396;23;20452;-75
2023/12/01 03:49:02;;;;;;;76.73;31.37;;;2.10;99.90;;;;;;6210421;23;20005;-75
2023/12/01 03:51:28;;;;;;;81.00;33.47;;;2.10;99.90;;;;;;6212400;23;19997;-75
2023/12/01 03:53:54;;;;;;;82.30;34.50;;;2.10;99.90;;;;;;6210972;23;20381;-75
2023/12/01 03:56:19;;;;;;;67.70;31.47;;;2.10;99.90;;;;;;6212358;23;20072;-70
2023/12/01 03:58:45;;;;;;;71.43;32.53;;;2.10;99.90;;;;;;6211989;23;20013;-70
2023/12/01 04:01:10;;;;;;;66.20;29.57;;;2.10;99.90;;;;;;6212662;23;20067;-70
2023/12/01 04:03:37;;;;;;;75.83;31.33;;;2.10;99.90;;;;;;6212270;23;20024;-70
2023/12/01 04:06:03;;;;;;;72.97;32.43;;;2.20;99.90;;;;;;6211748;23;20004;-70
2023/12/01 04:08:28;;;;;;;72.77;29.20;;;2.20;99.90;;;;;;6212390;23;20004;-70
2023/12/01 04:10:55;;;;;;;63.00;28.47;;;2.20;99.90;;;;;;6212027;23;20001;-71
2023/12/01 04:13:21;;;;;;;66.67;29.20;;;2.20;99.90;;;;;;6212277;23;20308;-70
2023/12/01 04:15:47;;;;;;;61.30;26.77;;;2.20;99.90;;;;;;6213518;23;20001;-71
2023/12/01 04:18:12;;;;;;;63.73;27.60;;;2.20;99.90;;;;;;6214209;23;20068;-70
2023/12/01 04:20:38;;;;;;;60.57;26.70;;;2.20;99.90;;;;;;6213704;23;20012;-70
2023/12/01 04:23:11;;;;;;;68.20;28.50;;;2.20;99.90;;;;;;6212690;23;20000;-70
2023/12/01 04:25:38;;;;;;;58.43;27.13;;;2.30;99.90;;;;;;6214105;23;20000;-70
2023/12/01 04:28:05;;;;;;;60.80;27.30;;;2.30;99.90;;;;;;6213639;23;20024;-70
2023/12/01 04:30:31;;;;;;;60.83;26.23;;;2.30;99.90;;;;;;6213894;23;20012;-71
2023/12/01 04:32:57;;;;;;;62.23;27.07;;;2.30;99.90;;;;;;6212855;23;20001;-71
2023/12/01 04:35:25;;;;;;;63.53;28.00;;;2.30;99.90;;;;;;6212521;23;20031;-71
2023/12/01 04:37:51;;;;;;;59.23;25.23;;;2.30;99.90;;;;;;6213314;23;20012;-71
2023/12/01 04:40:17;;;;;;;62.37;26.40;;;2.30;99.90;;;;;;6212301;23;20008;-70
2023/12/01 04:42:50;;;;;;;65.17;26.53;;;2.30;99.90;;;;;;6213096;23;20005;-71
2023/12/01 04:45:17;;;;;;;60.35;24.63;;;2.30;99.90;;;;;;6213730;23;20505;-70
2023/12/01 04:47:45;;;;;;;69.37;27.07;;;2.30;99.90;;;;;;6213409;23;20017;-70
2023/12/01 04:50:13;;;;;;;67.57;29.17;;;2.30;99.90;;;;;;6213614;23;20004;-70
2023/12/01 04:52:50;;;;;;;70.03;29.83;;;2.20;99.90;;;;;;6212817;23;20001;-70
2023/12/01 04:55:22;;;;;;;65.40;30.13;;;2.30;99.90;;;;;;6213710;23;20005;-70
2023/12/01 04:57:48;;;;;;;69.27;29.90;;;2.20;99.90;;;;;;6213370;23;20001;-71
2023/12/01 05:00:19;;;;;;;68.60;29.73;;;2.20;99.90;;;;;;6213093;23;20334;-71
2023/12/01 05:02:49;;;;;;;78.97;31.73;;;2.20;99.90;;;;;;6211522;23;20004;-70
2023/12/01 05:05:16;;;;;;;79.37;31.70;;;2.20;99.90;;;;;;6213024;23;20008;-70
2023/12/01 05:07:42;;;;;;;76.07;30.87;;;2.20;99.90;;;;;;6213306;23;20016;-74
2023/12/01 05:10:14;;;;;;;71.83;31.80;;;2.10;99.90;;;;;;6211269;23;20009;-73
2023/12/01 05:12:43;;;;;;;75.50;32.53;;;2.10;99.90;;;;;;6213538;23;20008;-74
2023/12/01 05:15:15;;;;;;;83.00;35.87;;;2.10;99.90;;;;;;6212824;23;20001;-74
2023/12/01 05:17:50;;;;;;;77.43;33.17;;;2.10;99.90;;;;;;6215435;23;20057;-74
2023/12/01 05:20:18;;;;;;;79.30;33.73;;;2.10;99.90;;;;;;6244175;23;20436;-75
2023/12/01 05:22:49;;;;;;;81.67;34.03;;;2.10;99.90;;;;;;6217795;23;20008;-76
2023/12/01 05:25:16;;;;;;;69.20;29.97;;;2.10;99.90;;;;;;6219342;23;20000;-76
2023/12/01 05:27:47;;;;;;;82.97;31.90;;;2.20;99.90;;;;;;6219580;23;20019;-75
2023/12/01 05:30:19;;;;;;;90.03;34.60;;;2.20;99.90;;;;;;6219229;23;20004;-75
2023/12/01 05:32:48;;;;;;;72.50;31.00;;;2.20;99.90;;;;;;6220733;23;20005;-75
2023/12/01 05:35:15;;;;;;;75.83;34.70;;;2.30;99.90;;;;;;6220334;23;20098;-75
2023/12/01 05:37:47;;;;;;;74.97;32.77;;;2.30;99.90;;;;;;6218850;23;20026;-75
2023/12/01 05:40:14;;;;;;;75.27;32.23;;;2.30;99.90;;;;;;6242574;23;20001;-75
2023/12/01 05:42:42;;;;;;;75.23;31.40;;;2.30;99.90;;;;;;6241984;23;20024;-75
2023/12/01 05:45:13;;;;;;;72.80;31.27;;;2.40;99.90;;;;;;6217076;23;20009;-75
2023/12/01 05:47:46;;;;;;;62.23;27.63;;;2.40;99.90;;;;;;6218820;23;20005;-75
2023/12/01 05:50:16;;;;;;;75.90;32.57;;;2.40;99.90;;;;;;6218273;23;20095;-75
2023/12/01 05:52:45;;;;;;;74.90;31.47;;;2.40;99.90;;;;;;6221445;23;20017;-75
2023/12/01 05:55:15;;;;;;;73.03;30.97;;;2.30;99.90;;;;;;6221763;23;20004;-75
2023/12/01 05:57:45;;;;;;;73.90;31.43;;;2.30;99.90;;;;;;6221353;23;20000;-75
2023/12/01 06:00:13;;;;;;;76.37;33.37;;;2.40;99.90;;;;;;6221603;23;20004;-75
2023/12/01 06:02:40;;;;;;;79.67;35.30;;;2.40;99.90;;;;;;6221666;23;20000;-75
2023/12/01 06:05:07;;;;;;;86.80;34.40;;;2.50;99.90;;;;;;6220634;23;20051;-75
2023/12/01 06:07:33;;;;;;;73.13;29.70;;;2.30;99.90;;;;;;6216552;23;20087;-70
2023/12/01 06:09:59;;;;;;;83.27;36.20;;;2.30;99.90;;;;;;6212252;23;20071;-70
2023/12/01 06:12:24;;;;;;;81.00;35.20;;;2.20;99.90;;;;;;6211977;23;20442;-70
2023/12/01 06:14:50;;;;;;;87.23;35.63;;;2.20;99.90;;;;;;6212371;23;20075;-70
2023/12/01 06:17:15;;;;;;;76.37;33.33;;;2.20;99.90;;;;;;6212053;23;20055;-70
2023/12/01 06:19:41;;;;;;;86.37;37.40;;;2.10;99.90;;;;;;6212758;23;20032;-70
2023/12/01 06:22:07;;;;;;;87.33;35.50;;;2.10;99.90;;;;;;6211923;23;20027;-70
2023/12/01 06:24:33;;;;;;;75.97;34.30;;;2.10;99.90;;;;;;6210562;23;20012;-70
2023/12/01 06:27:03;;;;;;;73.23;31.53;;;2.10;99.90;;;;;;6212127;23;20088;-70
2023/12/01 06:29:29;;;;;;;64.47;29.23;;;2.10;99.90;;;;;;6212379;23;20151;-70
2023/12/01 06:31:56;;;;;;;49.67;25.23;;;2.10;99.90;;;;;;6211987;23;20442;-70
2023/12/01 06:34:21;;;;;;;49.60;21.73;;;2.20;99.90;;;;;;6212436;23;20020;-70
2023/12/01 06:36:47;;;;;;;45.77;20.20;;;2.10;99.90;;;;;;6212313;23;20047;-70
2023/12/01 06:39:13;;;;;;;44.90;21.00;;;2.10;99.90;;;;;;6212086;23;20530;-70
2023/12/01 06:41:41;;;;;;;41.27;20.37;;;2.10;99.90;;;;;;6212383;23;20001;-70
2023/12/01 06:44:07;;;;;;;36.43;17.13;;;2.10;99.90;;;;;;6212056;23;20004;-70
2023/12/01 06:46:32;;;;;;;38.97;17.67;;;2.10;99.90;;;;;;6212203;23;20418;-71
2023/12/01 06:48:58;;;;;;;43.97;19.83;;;2.10;99.90;;;;;;6212066;23;20024;-71
2023/12/01 06:51:24;;;;;;;41.50;18.77;;;2.00;99.90;;;;;;6212034;23;20326;-71
2023/12/01 06:53:50;;;;;;;41.40;17.33;;;2.00;99.90;;;;;;6210497;23;20005;-70
2023/12/01 06:56:15;;;;;;;35.93;19.27;;;2.00;99.90;;;;;;6212535;23;20000;-70
2023/12/01 06:58:41;;;;;;;33.53;17.13;;;2.00;99.90;;;;;;6212124;23;20008;-70
2023/12/01 07:01:06;;;;;;;39.00;16.97;;;1.90;99.90;;;;;;6212041;23;20016;-71
2023/12/01 07:03:32;;;;;;;40.03;19.17;;;1.90;99.90;;;;;;6212662;23;20005;-71
2023/12/01 07:05:57;;;;;;;33.50;17.50;;;1.90;99.90;;;;;;6212660;23;20000;-70
2023/12/01 07:08:23;;;;;;;39.40;17.73;;;1.90;99.90;;;;;;6212566;23;20012;-70
2023/12/01 07:10:48;;;;;;;34.83;17.03;;;1.80;99.90;;;;;;6214197;23;20036;-71
2023/12/01 07:13:14;;;;;;;33.30;16.30;;;1.90;99.90;;;;;;6213156;23;20059;-71
2023/12/01 07:15:39;;;;;;;35.43;16.73;;;1.80;99.90;;;;;;6214008;23;20419;-71
2023/12/01 07:18:05;;;;;;;36.77;16.57;;;1.80;99.90;;;;;;6211787;23;20473;-71
2023/12/01 07:20:33;;;;;;;39.40;19.10;;;1.80;99.90;;;;;;6212273;23;20007;-70
2023/12/01 07:22:59;;;;;;;34.97;17.87;;;1.90;99.90;;;;;;6211822;23;20004;-71
2023/12/01 07:25:25;;;;;;;34.87;16.73;;;1.80;99.90;;;;;;6212207;23;20156;-70
2023/12/01 07:27:58;;;;;;;30.70;15.50;;;1.80;99.90;;;;;;6210646;23;20453;-71
2023/12/01 07:30:27;;;;;;;36.70;17.02;;;1.80;99.90;;;;;;6211482;23;20062;-71
2023/12/01 07:32:53;;;;;;;39.47;18.43;;;1.80;99.90;;;;;;6211112;23;20055;-70
2023/12/01 07:35:19;;;;;;;32.27;16.33;;;1.80;99.90;;;;;;6212146;23;20068;-70
2023/12/01 07:37:47;;;;;;;33.77;17.27;;;1.80;99.90;;;;;;6211407;23;20032;-70
2023/12/01 07:40:19;;;;;;;33.33;16.43;;;1.70;99.90;;;;;;6210330;23;20326;-70
2023/12/01 07:42:45;;;;;;;36.17;17.47;;;1.70;99.90;;;;;;6210905;23;20047;-71
2023/12/01 07:45:14;;;;;;;32.93;16.43;;;1.70;99.90;;;;;;6210675;23;20061;-71
2023/12/01 07:47:39;;;;;;;36.33;17.67;;;1.70;99.90;;;;;;6211932;23;20012;-70
2023/12/01 07:50:07;;;;;;;35.23;17.07;;;1.70;99.90;;;;;;6212249;23;20414;-70
2023/12/01 07:52:32;;;;;;;36.40;19.03;;;1.70;99.90;;;;;;6213792;23;20009;-70
2023/12/01 07:54:58;;;;;;;36.17;17.00;;;1.70;99.90;;;;;;6213808;23;20452;-70
2023/12/01 07:57:24;;;;;;;36.73;16.90;;;1.70;99.90;;;;;;6213599;23;20020;-70
2023/12/01 07:59:50;;;;;;;30.93;16.03;;;1.70;99.90;;;;;;6213452;23;20004;-70
2023/12/01 08:02:15;;;;;;;32.33;16.90;;;1.80;99.90;;;;;;6213407;23;20011;-74
2023/12/01 08:04:41;;;;;;;35.30;17.37;;;1.70;99.90;;;;;;6213793;23;20004;-74
2023/12/01 08:07:07;;;;;;;31.47;14.90;;;1.70;99.90;;;;;;6213312;23;20079;-75
2023/12/01 08:09:33;;;;;;;31.07;15.73;;;1.70;99.90;;;;;;6213859;23;20387;-74
2023/12/01 08:11:59;;;;;;;32.10;15.60;;;1.70;99.90;;;;;;6213467;23;20011;-74
2023/12/01 08:14:25;;;;;;;36.60;17.73;;;1.70;99.90;;;;;;6213678;23;20032;-75
2023/12/01 08:16:54;;;;;;;33.43;17.23;;;1.70;99.90;;;;;;6213835;23;19997;-74
2023/12/01 08:19:19;;;;;;;31.27;15.70;;;1.70;99.90;;;;;;6213707;23;20015;-74
2023/12/01 08:21:45;;;;;;;29.27;14.97;;;1.70;99.90;;;;;;6212915;23;20005;-74
2023/12/01 08:24:11;;;;;;;32.70;15.20;;;1.70;99.90;;;;;;6213401;23;20023;-74
2023/12/01 08:26:37;;;;;;;33.27;15.47;;;1.60;99.90;;;;;;6213710;23;19996;-74
2023/12/01 08:29:03;;;;;;;35.57;15.63;;;1.60;99.90;;;;;;6212632;23;19997;-75
2023/12/01 08:31:30;;;;;;;25.67;13.00;;;1.50;99.90;;;;;;6213166;23;20007;-75
2023/12/01 08:33:56;;;;;;;31.23;14.63;;;1.50;99.90;;;;;;6212106;23;20001;-75
2023/12/01 08:36:22;;;;;;;30.53;14.97;;;1.50;99.90;;;;;;6213043;23;20326;-75
2023/12/01 08:38:48;;;;;;;30.03;14.50;;;1.50;99.90;;;;;;6236222;23;20000;-75
2023/12/01 08:41:13;;;;;;;31.90;15.17;;;1.50;99.90;;;;;;6211465;23;20096;-73
2023/12/01 08:43:39;;;;;;;31.77;14.53;;;1.40;99.90;;;;;;6212600;23;20009;-74
2023/12/01 08:46:05;;;;;;;36.87;17.30;;;1.40;99.90;;;;;;6211713;23;20080;-74
2023/12/01 08:48:30;;;;;;;31.83;14.47;;;1.40;99.90;;;;;;6213475;23;20009;-74
2023/12/01 08:50:56;;;;;;;31.77;14.63;;;1.40;99.90;;;;;;6213104;23;20007;-74
2023/12/01 08:53:22;;;;;;;26.67;13.83;;;1.50;99.90;;;;;;6212876;23;20327;-74
2023/12/01 08:55:48;;;;;;;29.73;14.47;;;1.40;99.90;;;;;;6212088;23;20084;-74
2023/12/01 08:58:14;;;;;;;28.27;13.70;;;1.50;99.90;;;;;;6211180;23;20100;-74
2023/12/01 09:00:40;;;;;;;27.63;12.33;;;1.50;99.90;;;;;;6213288;23;20359;-74
2023/12/01 09:03:06;;;;;;;28.23;13.57;;;1.40;99.90;;;;;;6212917;23;20427;-74
2023/12/01 09:05:32;;;;;;;26.30;14.20;;;1.40;99.90;;;;;;6213070;23;20004;-74
2023/12/01 09:07:59;;;;;;;28.30;14.50;;;1.40;99.90;;;;;;6213092;23;20071;-74
2023/12/01 09:10:26;;;;;;;28.93;15.00;;;1.40;99.90;;;;;;6213043;23;20413;-75
2023/12/01 09:12:52;;;;;;;28.77;13.70;;;1.40;99.90;;;;;;6213727;23;20008;-74
2023/12/01 09:15:18;;;;;;;29.90;13.83;;;1.30;99.90;;;;;;6213503;23;20505;-74
2023/12/01 09:17:43;;;;;;;23.93;13.60;;;1.30;99.90;;;;;;6213127;23;20457;-74
2023/12/01 09:20:09;;;;;;;31.50;15.60;;;1.40;99.90;;;;;;6212722;23;20043;-74
2023/12/01 09:22:36;;;;;;;30.23;13.27;;;1.40;99.90;;;;;;6212860;23;20009;-73
2023/12/01 09:25:02;;;;;;;25.63;12.57;;;1.40;99.90;;;;;;6212849;23;20000;-73
2023/12/01 09:27:28;;;;;;;26.27;13.27;;;1.50;99.90;;;;;;6211237;23;20024;-74
2023/12/01 09:29:53;;;;;;;28.67;12.90;;;1.50;99.90;;;;;;6212975;23;20011;-74
2023/12/01 09:32:19;;;;;;;30.10;14.47;;;1.50;99.90;;;;;;6212344;23;20059;-74
2023/12/01 09:34:45;;;;;;;30.60;14.27;;;1.50;99.90;;;;;;6212527;23;20391;-74
2023/12/01 09:37:12;;;;;;;27.77;13.30;;;1.50;99.90;;;;;;6212927;23;20074;-74
2023/12/01 09:39:37;;;;;;;26.70;14.50;;;1.50;99.90;;;;;;6212842;23;20369;-74
2023/12/01 09:42:09;;;;;;;23.43;12.47;;;1.60;99.90;;;;;;6213126;23;20072;-74
2023/12/01 09:44:35;;;;;;;26.70;12.47;;;1.60;99.90;;;;;;6212741;23;20001;-74
2023/12/01 09:47:02;;;;;;;26.90;13.43;;;1.60;99.90;;;;;;6213145;23;20419;-73
2023/12/01 09:49:33;;;;;;;30.00;13.37;;;1.60;99.90;;;;;;6212861;23;20023;-73
2023/12/01 09:51:59;;;;;;;27.43;12.67;;;1.60;99.90;;;;;;6212844;23;20001;-73
2023/12/01 09:54:24;;;;;;;25.27;13.17;;;1.60;99.90;;;;;;6212991;23;20001;-73
2023/12/01 09:56:51;;;;;;;30.07;13.20;;;1.60;99.90;;;;;;6212694;23;20025;-73
2023/12/01 09:59:18;;;;;;;25.77;11.87;;;1.60;99.90;;;;;;6212978;23;20071;-73
2023/12/01 10:01:47;;;;;;;26.07;12.83;;;1.80;99.90;;;;;;6212932;23;20387;-73
2023/12/01 10:04:12;;;;;;;25.03;12.70;;;1.90;99.90;;;;;;6212995;23;20123;-73
2023/12/01 10:06:39;;;;;;;27.57;13.63;;;1.90;99.90;;;;;;6211171;23;20442;-73
2023/12/01 10:09:09;;;;;;;24.80;12.40;;;2.00;99.90;;;;;;6212320;23;20016;-73
2023/12/01 10:11:35;;;;;;;31.47;15.10;;;2.00;99.90;;;;;;6212402;23;20043;-73
2023/12/01 10:14:06;;;;;;;25.93;11.63;;;2.10;99.90;;;;;;6211935;23;20008;-73
2023/12/01 10:16:38;;;;;;;28.77;13.60;;;2.20;99.90;;;;;;6212605;23;19997;-73
2023/12/01 10:19:05;;;;;;;22.27;10.67;;;2.20;99.90;;;;;;6212643;23;19996;-74
2023/12/01 10:21:42;;;;;;;29.20;13.43;;;2.30;99.90;;;;;;6213051;23;20004;-73
2023/12/01 10:24:16;;;;;;;25.57;14.30;;;2.30;99.90;;;;;;6211592;23;20319;-73
2023/12/01 10:26:43;;;;;;;27.90;13.35;;;2.30;99.90;;;;;;6212597;23;20024;-73
2023/12/01 10:29:31;;;;;;;28.57;13.03;;;2.20;99.90;;;;;;6212724;23;20031;-73
2023/12/01 10:32:02;;;;;;;23.87;11.50;;;2.20;99.90;;;;;;6212925;23;20000;-73
2023/12/01 10:34:28;;;;;;;28.87;13.53;;;2.30;99.90;;;;;;6212247;23;20020;-73
2023/12/01 10:36:54;;;;;;;26.67;12.93;;;2.30;99.90;;;;;;6213110;23;19996;-73
2023/12/01 10:39:25;;;;;;;26.10;12.80;;;2.40;99.90;;;;;;6212723;23;20609;-73
2023/12/01 10:41:53;;;;;;;26.47;12.87;;;2.40;99.90;;;;;;6212886;23;20000;-73
2023/12/01 10:44:21;;;;;;;22.50;12.47;;;2.40;99.90;;;;;;6212527;23;20001;-74
2023/12/01 10:46:48;;;;;;;26.27;12.27;;;2.40;99.90;;;;;;6212882;23;20000;-74
2023/12/01 10:49:19;;;;;;;30.13;14.17;;;2.40;99.90;;;;;;6212775;23;20001;-74
2023/12/01 10:51:46;;;;;;;33.30;13.77;;;2.40;99.90;;;;;;6212356;23;20046;-74
2023/12/01 10:54:14;;;;;;;28.10;13.77;;;2.40;99.90;;;;;;6212156;23;20032;-74
2023/12/01 10:57:04;;;;;;;30.37;14.77;;;2.40;99.90;;;;;;6212379;23;20484;-74
2023/12/01 10:59:33;;;;;;;31.47;15.33;;;2.50;99.90;;;;;;6212399;23;20295;-74
2023/12/01 11:02:00;;;;;;;28.67;13.77;;;2.40;99.90;;;;;;6211567;23;20120;-74
2023/12/01 11:04:26;;;;;;;29.87;13.90;;;2.40;99.90;;;;;;6212896;23;19997;-74
2023/12/01 11:07:20;;;;;;;32.50;14.93;;;2.40;99.90;;;;;;6211814;23;19996;-74
2023/12/01 11:09:57;;;;;;;28.80;14.97;;;2.40;99.90;;;;;;6212437;23;20003;-74
2023/12/01 11:12:49;;;;;;;34.07;15.13;;;2.40;99.90;;;;;;6212030;23;20059;-74
2023/12/01 11:15:21;;;;;;;26.20;14.03;;;2.40;99.90;;;;;;6212827;23;20007;-74
2023/12/01 11:17:46;;;;;;;32.60;14.20;;;2.30;99.90;;;;;;6213914;23;20000;-74
2023/12/01 11:20:32;;;;;;;28.70;13.27;;;2.40;99.90;;;;;;6212484;23;20007;-74
2023/12/01 11:23:12;;;;;;;26.93;13.17;;;2.40;99.90;;;;;;6211896;23;20004;-74
2023/12/01 11:26:05;;;;;;;30.73;14.27;;;2.40;99.90;;;;;;6213828;23;20027;-74
2023/12/01 11:31:14;;;;;;;28.17;13.77;;;2.40;99.90;;;;;;6218399;23;20032;-74
2023/12/01 11:33:45;;;;;;;30.77;13.73;;;2.40;99.90;;;;;;6214272;23;20000;-74
2023/12/01 11:36:29;;;;;;;26.27;13.60;;;2.40;99.90;;;;;;6214201;23;20005;-74
2023/12/01 11:41:58;;;;;;;30.95;14.18;;;2.40;99.90;;;;;;6214462;23;20015;-73
2023/12/01 11:44:29;;;;;;;;;;;2.30;99.90;;;;;;6214402;23;20007;-73
2023/12/01 11:46:57;;;;;;;26.00;12.83;;;2.30;99.90;;;;;;6213939;23;19978;-73
2023/12/01 11:49:39;;;;;;;26.73;13.57;;;2.30;99.90;;;;;;6213590;23;20482;-73
2023/12/01 11:52:10;;;;;;;28.63;14.37;;;2.30;99.90;;;;;;6213474;23;20153;-73
2023/12/01 11:54:36;;;;;;;24.50;12.70;;;2.30;99.90;;;;;;6220482;23;19997;-72
2023/12/01 11:57:09;;;;;;;24.73;12.57;;;2.20;99.90;;;;;;6224139;23;20338;-72
2023/12/01 11:59:36;;;;;;;29.40;13.10;;;2.30;99.90;;;;;;6225699;23;20000;-72
2023/12/01 12:02:02;;;;;;;24.07;13.20;;;2.30;99.90;;;;;;6226520;23;20008;-72
2023/12/01 12:04:28;;;;;;;27.87;15.23;;;2.20;99.90;;;;;;6214439;23;20028;-72
2023/12/01 12:06:55;;;;;;;26.47;12.87;;;2.20;99.90;;;;;;6214640;23;19996;-73
2023/12/01 12:09:21;;;;;;;29.00;13.90;;;2.20;99.90;;;;;;6214004;23;20072;-73
2023/12/01 12:11:52;;;;;;;29.00;15.33;;;2.10;99.90;;;;;;6214204;23;20039;-73
2023/12/01 12:14:24;;;;;;;29.47;13.77;;;2.10;99.90;;;;;;6214604;23;20459;-73
2023/12/01 12:16:51;;;;;;;27.97;14.13;;;2.10;99.90;;;;;;6214040;23;20004;-73
2023/12/01 12:19:18;;;;;;;32.73;14.27;;;2.00;99.90;;;;;;6212553;23;20075;-73
2023/12/01 12:21:44;;;;;;;30.57;15.07;;;2.10;99.90;;;;;;6214162;23;20000;-73
2023/12/01 12:24:10;;;;;;;28.20;13.40;;;2.00;99.90;;;;;;6213505;23;20004;-73
2023/12/01 12:26:36;;;;;;;27.40;14.47;;;2.00;99.90;;;;;;6213469;23;20391;-73
2023/12/01 12:29:03;;;;;;;28.23;12.63;;;2.00;99.90;;;;;;6213750;23;20020;-73
2023/12/01 12:31:31;;;;;;;30.13;14.93;;;2.00;99.90;;;;;;6213233;23;20004;-73
2023/12/01 12:33:58;;;;;;;29.00;14.53;;;2.00;99.90;;;;;;6219350;23;20031;-75
2023/12/01 12:36:32;;;;;;;27.10;14.83;;;1.90;99.90;;;;;;6221249;23;20004;-77
2023/12/01 12:39:03;;;;;;;27.45;14.52;;;1.90;99.90;;;;;;6221874;23;20004;-77
2023/12/01 12:41:30;;;;;;;27.97;13.67;;;1.90;99.90;;;;;;6222070;23;20007;-77
2023/12/01 12:43:57;;;;;;;26.63;12.77;;;1.90;99.90;;;;;;6222336;23;20426;-77
2023/12/01 12:46:24;;;;;;;27.27;12.50;;;1.90;99.90;;;;;;6223042;23;20019;-77